ADDS METAR Data INFO
IDs: Format: Raw Decoded Include TAF

Data at: 2011 UTC 19 Oct 2017

KDKB 191955Z AUTO 14003KT 10SM CLR 21/01 A3016 RMK AO2 T02120006
KDKB 191935Z AUTO 10004KT 10SM CLR 22/00 A3016 RMK AO2 T02150000
KDKB 191915Z AUTO 00000KT 10SM CLR 21/00 A3017 RMK AO2 T02090002
KDKB 191855Z AUTO 00000KT 10SM CLR 21/M01 A3018 RMK AO2 T02051007
KDKB 191835Z AUTO 00000KT 10SM CLR 20/M02 A3018 RMK AO2 T02031019
KDKB 191815Z AUTO 00000KT 10SM CLR 20/M03 A3018 RMK AO2 T02021027
KDKB 191755Z AUTO 07003KT 10SM CLR 20/M02 A3019 RMK AO2 T02011022 10201 20083
KDKB 191735Z AUTO 16004KT 10SM CLR 20/M02 A3019 RMK AO2 T01971019
KDKB 191715Z AUTO 11003KT 10SM CLR 19/M02 A3020 RMK AO2 T01921025
KDKB 191655Z AUTO 09006KT 10SM CLR 19/M02 A3020 RMK AO2 T01871023
KDKB 191635Z AUTO 09006KT 10SM CLR 19/M01 A3021 RMK AO2 T01871011
KDKB 191615Z AUTO 09004KT 10SM CLR 18/M01 A3020 RMK AO2 T01831008
KDKB 191555Z AUTO 07005KT 10SM CLR 18/M01 A3020 RMK AO2 T01761012
KDKB 191535Z AUTO 06004KT 10SM CLR 17/M01 A3020 RMK AO2 T01671011
KDKB 191515Z AUTO 04006KT 10SM CLR 16/01 A3020 RMK AO2 T01610005
KDKB 191455Z AUTO 05005KT 10SM CLR 15/03 A3020 RMK AO2 T01520027
KDKB 191435Z AUTO 05004KT 10SM CLR 15/03 A3019 RMK AO2 T01460032
KDKB 191415Z AUTO 04004KT 10SM CLR 14/04 A3018 RMK AO2 T01400035
KDKB 191355Z AUTO 00000KT 10SM CLR 13/07 A3018 RMK AO2 T01280069
KDKB 191335Z AUTO 00000KT 10SM CLR 12/07 A3017 RMK AO2 T01150073
KDKB 191315Z AUTO 00000KT 10SM CLR 10/07 A3016 RMK AO2 T00960071
KDKB 191255Z AUTO 32003KT 10SM CLR 09/07 A3015 RMK AO2 T00930069
KDKB 191235Z AUTO 33004KT 10SM CLR 08/07 A3014 RMK AO2 T00840065
KDKB 191215Z AUTO 32004KT 10SM CLR 09/07 A3013 RMK AO2 T00850065
KDKB 191155Z AUTO 31004KT 10SM CLR 09/07 A3012 RMK AO2 T00890065 10117 20072
KDKB 191135Z AUTO 32005KT 10SM CLR 10/07 A3011 RMK AO2 T00990069
KDKB 191115Z AUTO 30004KT 10SM CLR 10/07 A3011 RMK AO2 T00970069
KDKB 191055Z AUTO 32004KT 10SM CLR 10/07 A3011 RMK AO2 T01020071
KDKB 191035Z AUTO 29006KT 10SM CLR 11/07 A3009 RMK AO2 T01060073
KDKB 191015Z AUTO 27004KT 10SM CLR 11/07 A3009 RMK AO2 T01060073
KDKB 190955Z AUTO 27006KT 10SM CLR 11/08 A3008 RMK AO2 T01110075
KDKB 190935Z AUTO 28005KT 10SM CLR 11/08 A3007 RMK AO2 T01130075
KDKB 190915Z AUTO 26006KT 10SM CLR 11/08 A3007 RMK AO2 T01100075
KDKB 190855Z AUTO 25006KT 10SM CLR 11/08 A3006 RMK AO2 T01090077
KDKB 190835Z AUTO 23004KT 10SM CLR 09/07 A3005 RMK AO2 T00920067
KDKB 190815Z AUTO 22006KT 10SM CLR 09/07 A3005 RMK AO2 T00880070
KDKB 190755Z AUTO 20005KT 10SM CLR 08/06 A3005 RMK AO2 T00750064
KDKB 190735Z AUTO 19006KT 10SM CLR 08/06 A3005 RMK AO2 T00760062
KDKB 190715Z AUTO 19006KT 10SM CLR 08/07 A3005 RMK AO2 T00800067
KDKB 190655Z AUTO 18006KT 10SM CLR 08/07 A3004 RMK AO2 T00790065
KDKB 190635Z AUTO 19007KT 10SM CLR 08/06 A3004 RMK AO2 T00770063
KDKB 190615Z AUTO 19007KT 10SM CLR 08/07 A3004 RMK AO2 T00820065
KDKB 190555Z AUTO 20007KT 10SM CLR 09/07 A3004 RMK AO2 T00870065 10149 20087 402150046
KDKB 190535Z AUTO 20008KT 10SM CLR 10/07 A3004 RMK AO2 T00970068
KDKB 190515Z AUTO 20007KT 10SM CLR 10/07 A3004 RMK AO2 T01040070
KDKB 190455Z AUTO 20007KT 10SM CLR 11/07 A3005 RMK AO2 T01080070
KDKB 190435Z AUTO 20007KT 10SM CLR 11/07 A3005 RMK AO2 T01110070
KDKB 190415Z AUTO 21008KT 10SM CLR 12/07 A3006 RMK AO2 T01160071
KDKB 190355Z AUTO 21008KT 10SM CLR 12/07 A3006 RMK AO2 T01210072
KDKB 190335Z AUTO 21008KT 10SM CLR 11/07 A3007 RMK AO2 T01120069
KDKB 190315Z AUTO 21006KT 10SM CLR 12/07 A3007 RMK AO2 T01220068
KDKB 190255Z AUTO 22006KT 10SM CLR 13/07 A3007 RMK AO2 T01330069
KDKB 190235Z AUTO 22006KT 10SM CLR 13/07 A3007 RMK AO2 T01270070
KDKB 190215Z AUTO 22008KT 10SM CLR 13/07 A3006 RMK AO2 T01310068
KDKB 190155Z AUTO 20009KT 10SM CLR 13/07 A3004 RMK AO2 T01330068
KDKB 190135Z AUTO 20009KT 10SM CLR 14/07 A3004 RMK AO2 T01360067
KDKB 190115Z AUTO 19010KT 10SM CLR 14/07 A3003 RMK AO2 T01360065
KDKB 190055Z AUTO 19010KT 10SM CLR 14/06 A3003 RMK AO2 T01440063
KDKB 190035Z AUTO 18011KT 10SM CLR 14/06 A3003 RMK AO2 T01430064
KDKB 190015Z AUTO 19010KT 10SM CLR 15/06 A3003 RMK AO2 T01460063
KDKB 182355Z AUTO 20009KT 10SM CLR 15/06 A3004 RMK AO2 T01510061 10215 20151
KDKB 182335Z AUTO 20009KT 10SM CLR 17/06 A3004 RMK AO2 T01660060
KDKB 182315Z AUTO 20012KT 10SM CLR 18/06 A3004 RMK AO2 T01750060
KDKB 182255Z AUTO 20012KT 10SM CLR 18/06 A3003 RMK AO2 T01810059
KDKB 182235Z AUTO 19013G22KT 10SM CLR 19/06 A3002 RMK AO2 T01910058
KDKB 182215Z AUTO 19016G21KT 10SM CLR 20/06 A3002 RMK AO2 T01990058
KDKB 182155Z AUTO 20015G21KT 10SM CLR 21/06 A3001 RMK AO2 T02050057
KDKB 182135Z AUTO 20019G24KT 10SM CLR 21/06 A3002 RMK AO2 T02070060
KDKB 182115Z AUTO 19018G24KT 10SM CLR 21/07 A3002 RMK AO2 T02080066
KDKB 182055Z AUTO 18019G23KT 10SM CLR 21/07 A3003 RMK AO2 T02110068
KDKB 182035Z AUTO 20019G25KT 10SM CLR 21/07 A3003 RMK AO2 T02110068
KDKB 182015Z AUTO 18016G22KT 10SM CLR 21/07 A3004 RMK AO2 T02120073
KDKB 181955Z AUTO 21017G24KT 10SM CLR 21/07 A3004 RMK AO2 T02130068
KDKB 181935Z AUTO 18018G25KT 10SM CLR 21/07 A3006 RMK AO2 T02130073
KDKB 181915Z AUTO 20018G25KT 10SM CLR 21/07 A3006 RMK AO2 T02130070
KDKB 181855Z AUTO 19020KT 10SM CLR 21/07 A3007 RMK AO2 T02100072
KDKB 181835Z AUTO 19016G23KT 10SM CLR 21/08 A3007 RMK AO2 T02080076
KDKB 181815Z AUTO 19016G22KT 10SM CLR 21/07 A3008 RMK AO2 T02050071
KDKB 181755Z AUTO 19016G21KT 10SM CLR 21/08 A3009 RMK AO2 T02050078 10205 20049
KDKB 181735Z AUTO 19017KT 10SM CLR 20/08 A3010 RMK AO2 T01970075
KDKB 181715Z AUTO 18015G18KT 10SM CLR 19/08 A3010 RMK AO2 T01900077
KDKB 181655Z AUTO 19016KT 10SM CLR 18/08 A3010 RMK AO2 T01820078
KDKB 181635Z AUTO 19014G17KT 10SM CLR 17/08 A3011 RMK AO2 T01740077
KDKB 181615Z AUTO 19015G18KT 10SM CLR 17/08 A3012 RMK AO2 T01660077
KDKB 181555Z AUTO 19013KT 10SM CLR 16/08 A3013 RMK AO2 T01590077
KDKB 181535Z AUTO 19011KT 10SM CLR 15/08 A3013 RMK AO2 T01490080
KDKB 181515Z AUTO 20011KT 10SM CLR 14/08 A3013 RMK AO2 T01370076
KDKB 181455Z AUTO 18012KT 10SM CLR 13/07 A3014 RMK AO2 T01280073
KDKB 181435Z AUTO 19011G15KT 10SM CLR 12/07 A3015 RMK AO2 T01190072
KDKB 181415Z AUTO 19010KT 10SM CLR 11/07 A3015 RMK AO2 T01080069
KDKB 181355Z AUTO 18010KT 10SM CLR 09/07 A3015 RMK AO2 T00940066
KDKB 181335Z AUTO 18009KT 10SM CLR 08/06 A3015 RMK AO2 T00830061
KDKB 181315Z AUTO 18009KT 10SM CLR 07/06 A3015 RMK AO2 T00720055
KDKB 181255Z AUTO 18008KT 10SM CLR 06/05 A3015 RMK AO2 T00620049
KDKB 181235Z AUTO 17008KT 10SM CLR 06/05 A3015 RMK AO2 T00550045
KDKB 181215Z AUTO 17007KT 10SM CLR 05/04 A3015 RMK AO2 T00510041
KDKB 181155Z AUTO 17007KT 10SM CLR 05/04 A3015 RMK AO2 T00500040 10080 20046
KDKB 181135Z AUTO 18007KT 10SM CLR 05/04 A3015 RMK AO2 T00510040
KDKB 181115Z AUTO 17008KT 10SM CLR 06/04 A3015 RMK AO2 T00560043
KDKB 181055Z AUTO 18008KT 10SM CLR 06/05 A3015 RMK AO2 T00600045
KDKB 181035Z AUTO 17007KT 10SM CLR 06/04 A3015 RMK AO2 T00600044
KDKB 181015Z AUTO 17007KT 10SM CLR 06/05 A3015 RMK AO2 T00610045
KDKB 180955Z AUTO 17007KT 10SM CLR 06/04 A3015 RMK AO2 T00600043
KDKB 180935Z AUTO 17007KT 10SM CLR 06/04 A3014 RMK AO2 T00600043
KDKB 180915Z AUTO 17007KT 10SM CLR 06/04 A3014 RMK AO2 T00600043
KDKB 180855Z AUTO 17007KT 10SM CLR 06/05 A3014 RMK AO2 T00600045
KDKB 180835Z AUTO 18007KT 10SM CLR 06/05 A3014 RMK AO2 T00570045
KDKB 180815Z AUTO 18007KT 10SM CLR 06/05 A3014 RMK AO2 T00600045